createdAt,value
2023-02-16T00:00:26.469Z,202.20
2023-02-16T00:02:54.182Z,213.50
2023-02-16T00:05:29.228Z,217.23
2023-02-16T00:07:57.779Z,207.40
2023-02-16T00:10:27.818Z,202.27
2023-02-16T00:13:13.673Z,202.97
2023-02-16T00:15:41.493Z,196.17
2023-02-16T00:18:19.091Z,209.07
2023-02-16T00:20:48.389Z,207.07
2023-02-16T00:23:15.902Z,204.63
2023-02-16T00:25:43.547Z,208.07
2023-02-16T00:28:19.100Z,205.00
2023-02-16T00:30:46.918Z,215.87
2023-02-16T00:33:20.530Z,198.13
2023-02-16T00:35:48.548Z,212.33
2023-02-16T00:38:16.568Z,211.47
2023-02-16T00:40:44.198Z,205.53
2023-02-16T00:43:26.709Z,205.60
2023-02-16T00:45:54.973Z,192.67
2023-02-16T00:48:22.739Z,211.13
2023-02-16T00:50:49.968Z,211.27
2023-02-16T00:53:18.647Z,218.87
2023-02-16T00:55:46.348Z,214.53
2023-02-16T00:58:22.368Z,203.00
2023-02-16T01:00:54.538Z,206.93
2023-02-16T01:03:28.548Z,335.27
2023-02-16T01:06:14.845Z,454.97
2023-02-16T01:09:01.437Z,227.27
2023-02-16T01:11:29.718Z,209.03
2023-02-16T01:13:58.234Z,212.77
2023-02-16T01:16:37.477Z,206.80
2023-02-16T01:19:05.417Z,204.60
2023-02-16T01:21:33.033Z,214.27
2023-02-16T01:24:02.036Z,211.47
2023-02-16T01:26:30.297Z,204.80
2023-02-16T01:28:57.828Z,211.53
2023-02-16T01:31:25.533Z,213.57
2023-02-16T01:33:53.053Z,202.40
2023-02-16T01:36:35.148Z,198.63
2023-02-16T01:39:03.020Z,208.87
2023-02-16T01:42:03.361Z,205.07
2023-02-16T01:44:38.631Z,207.43
2023-02-16T01:47:29.627Z,190.97
2023-02-16T01:49:58.193Z,210.10
2023-02-16T01:52:38.100Z,198.30
2023-02-16T01:55:22.442Z,203.13
2023-02-16T01:58:12.947Z,194.77
2023-02-16T02:00:52.866Z,203.10
2023-02-16T02:03:53.783Z,214.97
2023-02-16T02:06:33.135Z,198.73
2023-02-16T02:09:02.043Z,203.77
2023-02-16T02:11:59.375Z,205.27
2023-02-16T02:14:33.665Z,207.70
2023-02-16T02:17:17.229Z,205.03
2023-02-16T02:20:16.767Z,202.50
2023-02-16T02:23:32.532Z,210.47
2023-02-16T02:26:33.740Z,192.67
2023-02-16T02:29:30.390Z,206.60
2023-02-16T02:32:37.272Z,210.60
2023-02-16T02:35:34.222Z,206.77
2023-02-16T02:38:06.580Z,196.33
2023-02-16T02:41:11.615Z,200.17
2023-02-16T02:43:55.279Z,207.67
2023-02-16T02:46:36.486Z,199.50
2023-02-16T02:49:04.525Z,195.87
2023-02-16T02:51:33.879Z,199.77
2023-02-16T02:54:50.149Z,209.13
2023-02-16T02:57:55.683Z,187.90
2023-02-16T03:00:49.822Z,208.73
2023-02-16T03:03:45.398Z,205.30
2023-02-16T03:06:21.267Z,206.87
2023-02-16T03:08:53.857Z,199.53
2023-02-16T03:11:48.106Z,200.23
2023-02-16T03:14:35.022Z,196.30
2023-02-16T03:17:31.644Z,193.07
2023-02-16T03:20:20.897Z,201.17
2023-02-16T03:23:06.833Z,203.23
2023-02-16T03:25:55.964Z,208.00
2023-02-16T03:28:45.030Z,205.23
2023-02-16T03:31:17.678Z,211.07
2023-02-16T03:33:46.179Z,206.93
2023-02-16T03:36:13.609Z,185.57
2023-02-16T03:38:41.068Z,209.83
2023-02-16T03:41:08.493Z,200.63
2023-02-16T03:43:35.964Z,205.10
2023-02-16T03:46:03.457Z,193.80
2023-02-16T03:48:30.606Z,190.87
2023-02-16T03:50:58.026Z,198.47
2023-02-16T03:53:25.290Z,203.63
2023-02-16T03:55:52.800Z,201.77
2023-02-16T03:58:23.610Z,192.73
2023-02-16T04:00:52.214Z,204.40
2023-02-16T04:03:20.108Z,195.60
2023-02-16T04:05:47.207Z,205.50
2023-02-16T04:08:14.668Z,196.53
2023-02-16T04:10:41.729Z,209.93
2023-02-16T04:13:09.484Z,199.23
2023-02-16T04:15:37.180Z,207.43
2023-02-16T04:18:04.730Z,198.03
2023-02-16T04:20:34.495Z,198.03
2023-02-16T04:23:02.586Z,204.30
2023-02-16T04:25:30.257Z,201.33
2023-02-16T04:27:57.722Z,212.20
2023-02-16T04:30:29.181Z,189.43
2023-02-16T04:32:57.229Z,191.60
2023-02-16T04:35:24.266Z,189.30
2023-02-16T04:37:51.674Z,204.00
2023-02-16T04:40:19.362Z,190.83
2023-02-16T04:42:46.965Z,192.90
2023-02-16T04:45:14.650Z,202.80
2023-02-16T04:47:42.485Z,202.03
2023-02-16T04:50:10.825Z,186.10
2023-02-16T04:52:38.494Z,206.23
2023-02-16T04:55:07.749Z,204.17
2023-02-16T04:57:35.201Z,198.67
2023-02-16T05:00:02.371Z,197.63
2023-02-16T05:02:29.479Z,195.03
2023-02-16T05:04:56.521Z,192.00
2023-02-16T05:07:23.948Z,198.77
2023-02-16T05:09:51.715Z,192.10
2023-02-16T05:12:37.841Z,194.73
2023-02-16T05:15:06.161Z,191.77
2023-02-16T05:17:33.609Z,196.37
2023-02-16T05:20:01.930Z,205.90
2023-02-16T05:22:33.500Z,213.10
2023-02-16T05:25:02.072Z,205.37
2023-02-16T05:27:31.261Z,194.23
2023-02-16T05:29:59.279Z,206.73
2023-02-16T05:32:26.908Z,205.10
2023-02-16T05:34:54.152Z,199.97
2023-02-16T05:37:21.374Z,205.67
2023-02-16T05:39:48.965Z,203.03
2023-02-16T05:42:16.362Z,203.50
2023-02-16T05:44:43.858Z,210.70
2023-02-16T05:47:11.431Z,200.00
2023-02-16T05:49:38.865Z,205.20
2023-02-16T05:52:06.206Z,198.70
2023-02-16T05:54:33.703Z,204.37
2023-02-16T05:57:00.817Z,212.20
2023-02-16T05:59:27.923Z,195.93
2023-02-16T06:01:55.028Z,209.37
2023-02-16T06:04:22.458Z,201.33
2023-02-16T06:06:50.326Z,199.70
2023-02-16T06:09:17.682Z,201.73
2023-02-16T06:11:44.862Z,212.93
2023-02-16T06:14:18.380Z,207.47
2023-02-16T06:16:49.224Z,225.57
2023-02-16T06:19:18.867Z,208.87
2023-02-16T06:21:46.577Z,207.90
2023-02-16T06:24:14.483Z,200.77
2023-02-16T06:26:42.079Z,214.97
2023-02-16T06:29:09.769Z,228.27
2023-02-16T06:31:37.236Z,237.53
2023-02-16T06:34:05.473Z,235.13
2023-02-16T06:36:33.249Z,233.87
2023-02-16T06:39:00.736Z,204.67
2023-02-16T06:41:54.110Z,215.17
2023-02-16T06:44:21.246Z,185.77
2023-02-16T06:46:49.015Z,196.97
2023-02-16T06:49:19.480Z,206.80
2023-02-16T06:51:48.596Z,194.03
2023-02-16T06:54:16.565Z,194.17
2023-02-16T06:56:44.067Z,192.17
2023-02-16T06:59:12.866Z,199.30
2023-02-16T07:01:39.940Z,204.60
2023-02-16T07:04:07.146Z,190.43
2023-02-16T07:06:35.105Z,203.13
2023-02-16T07:09:03.662Z,202.03
2023-02-16T07:11:30.726Z,196.77
2023-02-16T07:13:57.785Z,204.87
2023-02-16T07:16:25.086Z,204.70
2023-02-16T07:18:52.210Z,187.47
2023-02-16T07:21:20.029Z,195.87
2023-02-16T07:23:47.407Z,201.07
2023-02-16T07:26:14.930Z,199.03
2023-02-16T07:28:42.062Z,217.73
2023-02-16T07:31:17.042Z,277.63
2023-02-16T07:33:44.757Z,254.20
2023-02-16T07:36:13.101Z,293.43
2023-02-16T07:38:42.038Z,324.53
2023-02-16T07:41:10.258Z,239.60
2023-02-16T07:43:39.411Z,251.90
2023-02-16T07:46:06.693Z,216.57
2023-02-16T07:48:34.096Z,218.27
2023-02-16T07:51:01.937Z,205.43
2023-02-16T07:53:29.508Z,213.83
2023-02-16T07:55:57.150Z,202.93
2023-02-16T07:58:30.101Z,215.60
2023-02-16T08:01:10.068Z,221.43
2023-02-16T08:03:38.255Z,206.37
2023-02-16T08:06:06.387Z,211.20
2023-02-16T08:08:33.875Z,215.63
2023-02-16T08:11:07.714Z,208.10
2023-02-16T08:13:34.744Z,212.17
2023-02-16T08:16:02.381Z,230.67
2023-02-16T08:18:30.898Z,220.50
2023-02-16T08:21:04.169Z,205.63
2023-02-16T08:23:32.008Z,216.60
2023-02-16T08:25:59.673Z,209.73
2023-02-16T08:28:28.892Z,222.37
2023-02-16T08:30:56.610Z,211.10
2023-02-16T08:33:25.128Z,222.10
2023-02-16T08:35:53.115Z,208.97
2023-02-16T08:38:20.939Z,209.10
2023-02-16T08:40:49.478Z,231.87
2023-02-16T08:43:17.076Z,217.20
2023-02-16T08:45:48.472Z,209.53
2023-02-16T08:48:16.861Z,225.23
2023-02-16T08:50:53.609Z,221.90
2023-02-16T08:53:25.311Z,225.07
2023-02-16T08:55:55.765Z,223.63
2023-02-16T08:58:23.564Z,232.50
2023-02-16T09:00:51.109Z,212.20
2023-02-16T09:03:21.288Z,218.90
2023-02-16T09:05:51.322Z,216.37
2023-02-16T09:08:19.280Z,219.47
2023-02-16T09:10:46.752Z,216.93
2023-02-16T09:13:16.848Z,212.93
2023-02-16T09:15:44.694Z,214.27
2023-02-16T09:18:12.899Z,219.23
2023-02-16T09:20:45.641Z,225.27
2023-02-16T09:23:14.021Z,262.60
2023-02-16T09:25:42.223Z,224.60
2023-02-16T09:28:10.874Z,224.87
2023-02-16T09:30:38.621Z,211.47
2023-02-16T09:33:06.596Z,219.80
2023-02-16T09:35:34.093Z,217.63
2023-02-16T09:38:02.499Z,212.57
2023-02-16T09:40:30.066Z,207.83
2023-02-16T09:43:31.883Z,211.27
2023-02-16T09:46:00.031Z,207.53
2023-02-16T09:48:45.485Z,216.93
2023-02-16T09:51:29.386Z,211.80
2023-02-16T09:54:20.068Z,219.07
2023-02-16T09:56:57.971Z,214.77
2023-02-16T10:00:04.503Z,234.37
2023-02-16T10:03:10.277Z,216.20
2023-02-16T10:05:53.034Z,218.60
2023-02-16T10:08:50.233Z,219.00
2023-02-16T10:11:46.923Z,221.83
2023-02-16T10:14:31.833Z,219.90
2023-02-16T10:17:28.314Z,239.57
2023-02-16T10:20:06.131Z,222.40
2023-02-16T10:22:57.211Z,217.60
2023-02-16T10:26:08.858Z,219.10
2023-02-16T10:28:50.241Z,223.20
2023-02-16T10:31:43.906Z,217.83
2023-02-16T10:34:39.873Z,220.13
2023-02-16T10:37:31.711Z,233.37
2023-02-16T10:40:23.151Z,226.67
2023-02-16T10:43:36.508Z,222.47
2023-02-16T10:46:05.043Z,232.97
2023-02-16T10:48:32.767Z,228.77
2023-02-16T10:51:14.856Z,238.27
2023-02-16T10:54:27.497Z,244.70
2023-02-16T10:57:07.215Z,231.23
2023-02-16T10:59:45.862Z,223.97
2023-02-16T11:02:39.381Z,219.33
2023-02-16T11:05:38.726Z,228.07
2023-02-16T11:08:11.209Z,222.87
2023-02-16T11:10:48.349Z,229.13
2023-02-16T11:13:26.920Z,217.87
2023-02-16T11:15:58.334Z,237.60
2023-02-16T11:18:38.003Z,240.00
2023-02-16T11:21:07.417Z,228.57
2023-02-16T11:23:38.581Z,248.07
2023-02-16T11:26:10.463Z,231.33
2023-02-16T11:28:45.289Z,285.43
2023-02-16T11:31:27.489Z,224.87
2023-02-16T11:34:37.688Z,226.37
2023-02-16T11:37:28.316Z,215.90
2023-02-16T11:40:04.090Z,229.17
2023-02-16T11:42:47.196Z,219.33
2023-02-16T11:45:34.549Z,218.53
2023-02-16T11:48:07.365Z,220.43
2023-02-16T11:50:41.123Z,228.70
2023-02-16T11:53:13.823Z,220.23
2023-02-16T11:55:45.320Z,231.67
2023-02-16T11:58:25.718Z,226.43
2023-02-16T12:01:17.897Z,222.27
2023-02-16T12:03:59.958Z,230.93
2023-02-16T12:06:45.120Z,218.53
2023-02-16T12:09:23.306Z,222.73
2023-02-16T12:12:14.396Z,226.27
2023-02-16T12:15:17.484Z,222.70
2023-02-16T12:17:49.417Z,240.33
2023-02-16T12:20:49.904Z,267.77
2023-02-16T12:23:59.332Z,229.97
2023-02-16T12:26:44.131Z,217.80
2023-02-16T12:29:33.768Z,239.30
2023-02-16T12:32:10.646Z,238.03
2023-02-16T12:34:38.046Z,225.20
2023-02-16T12:37:26.874Z,237.53
2023-02-16T12:40:33.903Z,233.47
2023-02-16T12:43:38.108Z,221.33
2023-02-16T12:46:25.950Z,222.63
2023-02-16T12:48:57.112Z,214.07
2023-02-16T12:51:33.473Z,222.40
2023-02-16T12:54:23.950Z,221.97
2023-02-16T12:57:14.793Z,222.70
2023-02-16T13:00:03.978Z,218.43
2023-02-16T13:02:46.317Z,263.10
2023-02-16T13:05:32.816Z,222.90
2023-02-16T13:08:10.707Z,231.17
2023-02-16T13:11:04.902Z,218.20
2023-02-16T13:13:34.860Z,222.13
2023-02-16T13:16:31.943Z,222.07
2023-02-16T13:18:59.678Z,223.53
2023-02-16T13:21:53.273Z,220.00
2023-02-16T13:24:46.531Z,219.67
2023-02-16T13:27:47.881Z,230.73
2023-02-16T13:30:52.025Z,221.87
2023-02-16T13:34:00.999Z,215.33
2023-02-16T13:36:49.402Z,223.13
2023-02-16T13:39:40.527Z,219.70
2023-02-16T13:42:39.826Z,230.73
2023-02-16T13:45:23.637Z,244.93
2023-02-16T13:47:53.737Z,226.53
2023-02-16T13:50:25.193Z,223.17
2023-02-16T13:52:56.806Z,224.87
2023-02-16T13:55:31.006Z,267.50
2023-02-16T13:58:02.316Z,237.07
2023-02-16T14:00:42.282Z,236.33
2023-02-16T14:03:20.113Z,232.47
2023-02-16T14:05:49.580Z,234.07
2023-02-16T14:08:27.575Z,234.30
2023-02-16T14:10:57.993Z,228.13
2023-02-16T14:13:37.242Z,230.80
2023-02-16T14:16:12.284Z,237.97
2023-02-16T14:19:00.859Z,237.00
2023-02-16T14:21:41.587Z,228.83
2023-02-16T14:24:33.462Z,230.03
2023-02-16T14:27:13.302Z,239.53
2023-02-16T14:29:57.051Z,234.07
2023-02-16T14:32:33.934Z,232.20
2023-02-16T14:35:34.122Z,239.67
2023-02-16T14:38:16.303Z,232.50
2023-02-16T14:40:58.937Z,246.73
2023-02-16T14:43:43.391Z,260.87
2023-02-16T14:46:29.505Z,245.97
2023-02-16T14:49:34.016Z,237.53
2023-02-16T14:52:07.101Z,236.47
2023-02-16T14:54:56.542Z,235.23
2023-02-16T14:57:31.264Z,228.17
2023-02-16T15:00:19.516Z,233.43
2023-02-16T15:03:15.767Z,238.80
2023-02-16T15:05:43.852Z,232.47
2023-02-16T15:08:23.179Z,233.60
2023-02-16T15:10:54.193Z,231.97
2023-02-16T15:13:33.127Z,231.73
2023-02-16T15:16:04.161Z,239.23
2023-02-16T15:18:44.282Z,239.97
2023-02-16T15:21:28.624Z,319.23
2023-02-16T15:23:59.973Z,234.20
2023-02-16T15:26:36.011Z,241.50
2023-02-16T15:29:29.588Z,235.70
2023-02-16T15:31:59.794Z,261.57
2023-02-16T15:34:33.326Z,239.97
2023-02-16T15:37:02.448Z,234.07
2023-02-16T15:39:48.260Z,254.37
2023-02-16T15:42:28.160Z,255.30
2023-02-16T15:44:55.192Z,253.40
2023-02-16T15:47:25.496Z,249.67
2023-02-16T15:49:54.098Z,252.70
2023-02-16T15:52:34.373Z,257.00
2023-02-16T15:55:05.027Z,253.40
2023-02-16T15:57:38.198Z,262.47
2023-02-16T16:00:19.522Z,251.33
2023-02-16T16:02:53.642Z,232.77
2023-02-16T16:05:33.119Z,251.90
2023-02-16T16:08:01.736Z,226.37
2023-02-16T16:10:33.727Z,241.87
2023-02-16T16:13:06.751Z,242.77
2023-02-16T16:15:40.106Z,226.00
2023-02-16T16:18:33.275Z,251.30
2023-02-16T16:21:02.818Z,231.50
2023-02-16T16:23:30.555Z,234.97
2023-02-16T16:25:58.818Z,237.80
2023-02-16T16:28:28.866Z,242.33
2023-02-16T16:31:23.214Z,232.97
2023-02-16T16:33:53.307Z,242.63
2023-02-16T16:36:21.302Z,248.27
2023-02-16T16:38:48.930Z,254.27
2023-02-16T16:41:29.272Z,284.30
2023-02-16T16:43:57.316Z,234.70
2023-02-16T16:46:27.547Z,241.30
2023-02-16T16:49:06.278Z,229.63
2023-02-16T16:51:38.769Z,342.73
2023-02-16T16:54:29.756Z,299.70
2023-02-16T16:56:57.441Z,258.70
2023-02-16T16:59:24.852Z,252.33
2023-02-16T17:01:52.989Z,238.60
2023-02-16T17:04:22.117Z,245.10
2023-02-16T17:06:49.571Z,242.17
2023-02-16T17:09:17.055Z,266.93
2023-02-16T17:11:44.553Z,236.50
2023-02-16T17:14:18.049Z,256.87
2023-02-16T17:16:48.336Z,235.57
2023-02-16T17:19:19.940Z,260.47
2023-02-16T17:21:48.786Z,250.70
2023-02-16T17:24:16.463Z,274.23
2023-02-16T17:26:44.083Z,259.70
2023-02-16T17:29:11.675Z,250.43
2023-02-16T17:31:39.320Z,280.50
2023-02-16T17:34:06.517Z,254.93
2023-02-16T17:36:34.422Z,263.30
2023-02-16T17:39:02.099Z,250.03
2023-02-16T17:41:30.101Z,265.50
2023-02-16T17:43:57.568Z,261.03
2023-02-16T17:46:26.821Z,294.57
2023-02-16T17:48:55.383Z,267.43
2023-02-16T17:51:25.394Z,284.07
2023-02-16T17:53:52.926Z,283.47
2023-02-16T17:56:23.036Z,291.73
2023-02-16T17:58:51.060Z,281.90
2023-02-16T18:01:19.831Z,284.20
2023-02-16T18:03:47.318Z,290.30
2023-02-16T18:06:21.094Z,288.13
2023-02-16T18:08:48.663Z,440.77
2023-02-16T18:11:16.350Z,278.10
2023-02-16T18:13:43.934Z,269.90
2023-02-16T18:16:18.846Z,267.03
2023-02-16T18:18:48.041Z,261.70
2023-02-16T18:21:15.554Z,279.53
2023-02-16T18:23:43.060Z,261.20
2023-02-16T18:26:14.854Z,249.97
2023-02-16T18:28:42.614Z,271.90
2023-02-16T18:31:10.438Z,254.87
2023-02-16T18:33:38.129Z,258.77
2023-02-16T18:36:05.942Z,250.80
2023-02-16T18:38:33.638Z,257.13
2023-02-16T18:41:01.185Z,244.03
2023-02-16T18:43:28.684Z,236.37
2023-02-16T18:45:55.744Z,229.30
2023-02-16T18:48:23.370Z,226.33
2023-02-16T18:50:50.941Z,236.80
2023-02-16T18:53:18.339Z,241.50
2023-02-16T18:55:45.794Z,233.53
2023-02-16T18:58:14.739Z,233.30
2023-02-16T19:00:42.155Z,240.67
2023-02-16T19:03:09.994Z,223.50
2023-02-16T19:05:37.096Z,229.93
2023-02-16T19:08:04.650Z,221.27
2023-02-16T19:10:32.240Z,235.70
2023-02-16T19:13:01.223Z,229.07
2023-02-16T19:15:29.340Z,236.70
2023-02-16T19:17:56.780Z,289.83
2023-02-16T19:20:24.513Z,235.40
2023-02-16T19:22:51.925Z,243.40
2023-02-16T19:25:19.408Z,250.07
2023-02-16T19:27:47.426Z,246.97
2023-02-16T19:30:15.049Z,234.27
2023-02-16T19:32:42.482Z,256.43
2023-02-16T19:35:11.355Z,257.87
2023-02-16T19:37:39.334Z,221.40
2023-02-16T19:40:09.037Z,218.70
2023-02-16T19:42:37.166Z,217.40
2023-02-16T19:45:04.958Z,217.33
2023-02-16T19:47:32.443Z,230.27
2023-02-16T19:50:00.053Z,222.13
2023-02-16T19:52:27.555Z,216.27
2023-02-16T19:54:55.071Z,233.97
2023-02-16T19:57:22.558Z,219.97
2023-02-16T19:59:50.027Z,214.57
2023-02-16T20:02:17.436Z,219.90
2023-02-16T20:04:44.895Z,235.03
2023-02-16T20:07:11.941Z,212.40
2023-02-16T20:09:39.487Z,215.37
2023-02-16T20:12:07.043Z,215.37
2023-02-16T20:14:34.486Z,213.53
2023-02-16T20:17:01.583Z,231.80
2023-02-16T20:19:29.062Z,220.30
2023-02-16T20:21:56.489Z,228.57
2023-02-16T20:24:23.957Z,231.70
2023-02-16T20:26:52.135Z,230.20
2023-02-16T20:29:20.995Z,221.77
2023-02-16T20:31:56.885Z,215.60
2023-02-16T20:34:26.371Z,219.03
2023-02-16T20:36:54.151Z,222.90
2023-02-16T20:39:21.715Z,226.00
2023-02-16T20:41:49.408Z,216.73
2023-02-16T20:44:17.494Z,220.67
2023-02-16T20:46:44.973Z,231.57
2023-02-16T20:49:13.568Z,223.03
2023-02-16T20:51:41.403Z,214.57
2023-02-16T20:54:09.011Z,217.77
2023-02-16T20:56:36.165Z,224.07
2023-02-16T20:59:04.787Z,216.10
2023-02-16T21:01:34.392Z,227.00
2023-02-16T21:04:01.885Z,225.70
2023-02-16T21:06:29.757Z,230.00
2023-02-16T21:08:57.487Z,222.77
2023-02-16T21:11:25.586Z,244.47
2023-02-16T21:13:53.325Z,295.30
2023-02-16T21:16:21.095Z,283.90
2023-02-16T21:18:48.246Z,292.93
2023-02-16T21:21:15.891Z,255.77
2023-02-16T21:23:50.581Z,241.53
2023-02-16T21:26:20.518Z,242.13
2023-02-16T21:28:48.415Z,219.73
2023-02-16T21:31:22.305Z,216.93
2023-02-16T21:33:49.948Z,212.07
2023-02-16T21:36:21.359Z,209.27
2023-02-16T21:38:48.989Z,223.33
2023-02-16T21:41:26.406Z,238.70
2023-02-16T21:43:58.529Z,217.77
2023-02-16T21:46:28.124Z,212.37
2023-02-16T21:48:57.318Z,227.47
2023-02-16T21:51:31.205Z,218.93
2023-02-16T21:53:59.188Z,221.87
2023-02-16T21:56:33.496Z,221.33
2023-02-16T21:59:01.478Z,211.73
2023-02-16T22:01:32.524Z,213.50
2023-02-16T22:04:01.469Z,216.17
2023-02-16T22:06:36.368Z,218.50
2023-02-16T22:09:10.580Z,213.97
2023-02-16T22:11:38.379Z,224.33
2023-02-16T22:14:05.931Z,221.70
2023-02-16T22:16:35.970Z,211.37
2023-02-16T22:19:13.264Z,220.33
2023-02-16T22:21:42.822Z,221.10
2023-02-16T22:24:14.213Z,222.43
2023-02-16T22:26:42.233Z,218.40
2023-02-16T22:29:10.100Z,220.20
2023-02-16T22:31:38.198Z,213.57
2023-02-16T22:34:10.642Z,223.53
2023-02-16T22:36:38.151Z,223.13
2023-02-16T22:39:06.013Z,214.33
2023-02-16T22:41:34.676Z,221.40
2023-02-16T22:44:02.659Z,216.13
2023-02-16T22:46:30.640Z,218.37
2023-02-16T22:48:58.889Z,215.27
2023-02-16T22:51:29.340Z,218.60
2023-02-16T22:53:58.762Z,220.23
2023-02-16T22:56:27.047Z,221.00
2023-02-16T22:58:57.558Z,214.90
2023-02-16T23:01:26.595Z,219.30
2023-02-16T23:03:59.304Z,228.20
2023-02-16T23:06:30.309Z,214.33
2023-02-16T23:09:01.727Z,218.43
2023-02-16T23:11:29.712Z,226.00
2023-02-16T23:13:57.035Z,229.47
2023-02-16T23:16:26.435Z,216.20
2023-02-16T23:18:56.300Z,237.43
2023-02-16T23:21:30.091Z,231.40
2023-02-16T23:23:57.993Z,222.93
2023-02-16T23:26:27.954Z,217.23
2023-02-16T23:28:57.464Z,213.63
2023-02-16T23:31:24.735Z,226.17
2023-02-16T23:33:52.602Z,221.97
2023-02-16T23:36:20.159Z,223.83
2023-02-16T23:38:47.557Z,214.33
2023-02-16T23:41:16.223Z,227.17
2023-02-16T23:43:43.959Z,219.87
2023-02-16T23:46:11.783Z,222.70
2023-02-16T23:48:39.463Z,229.63
2023-02-16T23:51:07.173Z,219.57
2023-02-16T23:53:35.001Z,225.13
2023-02-16T23:56:29.248Z,217.53
2023-02-16T23:59:00.951Z,212.23
